North Ferrisburgh, VT (05473)

8:04 PM EST on February 09, 2016 (GMT -0500)
County Crossing | | Change Station
CLOSE
Current Station
Personal Weather Station
Location: Charlotte, VT
Elevation: 335 ft
Nearby Weather Stations

Elev 335 ft 44.26 °N, 73.22 °W | Updated 16 seconds ago

Overcast
Overcast
25.7 °F
Feels Like 26 °F
N
0.0
Wind Variable Wind from NW
Gusts 0.0 mph

Today
High -- | Low -- °F
--% Chance of Precip.
Yesterday
High -- | Low -- °F
Precip. -- in
Pressure 29.59 in
Visibility 7.0 miles
Clouds Overcast 4000 ft
Windchill 26 °F
Dew Point 18 °F
Humidity 73%
Rainfall 0.02 in
Snow Depth Not available.
7:01 AM 5:13 PM
Waxing Crescent, 3% visible
METAR KBTV 100054Z 00000KT 7SM -SN OVC040 M04/M07 A2957 RMK AO2 SLP020 P0000 T10391072
Pressure 29.59 in
Visibility 7.0 miles
Clouds Overcast 4000 ft
Windchill 26 °F
Dew Point 18 °F
Humidity 73%
Rainfall 0.02 in
Snow Depth Not available.
7:01 AM 5:13 PM
Waxing Crescent, 3% visible
METAR KBTV 100054Z 00000KT 7SM -SN OVC040 M04/M07 A2957 RMK AO2 SLP020 P0000 T10391072

10-Day Weather Forecast

Almanac

Astronomy

Feb. 09, 2016 Rise Set
Actual Time
Civil Twilight
Nautical Twilight
Astronomical Twilight
Moon
Length of Visible Light
Length of Day
Tomorrow will be .
, % of the Moon is Illuminated

Today's Extremes

State Highs State Lows

Community

WunderPhotos

Upload Photos

1,891,752 photos uploaded!

WunderBlog® & News

Nearby

Air Quality

  Air Quality AQ Index Pollutant
Not available.

Snow Depth

Station Depth Elevation

Earthquake Activity

City Distance Mag. Time & Date
Minimum magnitude displayed is 2.5.

Coastal Water Temperatures

Place Temperature

Stations

Nearby Weather Stations

Station Location Temp. Windchill Dew Point Humidity Wind Precip. Elev Updated Type
                   

Watches & Warnings

There are currently no watches in effect.